Time;durP1;ratioP1;P1;durP2;ratioP2;P2;SDS_P1;SDS_P2;PMS_P1;PMS_P2;Temp;Humidity;BMP_temperature;BMP_pressure;BME280_temperature;BME280_humidity;BME280_pressure;Samples;Min_cycle;Max_cycle;Signal;HPM_P1;HPM_P2
2021/10/30 00:01:30;;;;;;;2.50;1.88;;;15.10;77.60;;;;;;5135171;27;20030;-53
2021/10/30 00:03:55;;;;;;;2.53;2.00;;;15.10;77.60;;;;;;5116407;27;20047;-54
2021/10/30 00:06:21;;;;;;;2.10;1.73;;;15.10;77.60;;;;;;5135694;27;20158;-55
2021/10/30 00:08:47;;;;;;;1.90;1.70;;;15.10;77.60;;;;;;5134763;27;20096;-53
2021/10/30 00:11:12;;;;;;;2.08;1.77;;;15.10;77.60;;;;;;5135595;27;20054;-53
2021/10/30 00:13:38;;;;;;;1.70;1.60;;;15.10;77.60;;;;;;5135048;27;20039;-52
2021/10/30 00:16:04;;;;;;;1.63;1.52;;;15.10;77.60;;;;;;5135364;27;20053;-55
2021/10/30 00:18:30;;;;;;;2.08;1.80;;;15.10;77.70;;;;;;5135330;27;20115;-55
2021/10/30 00:20:58;;;;;;;1.85;1.52;;;15.10;77.60;;;;;;5135170;27;20170;-55
2021/10/30 00:23:23;;;;;;;1.75;1.65;;;15.10;77.60;;;;;;5134447;27;20499;-55
2021/10/30 00:25:49;;;;;;;2.15;1.75;;;15.10;77.70;;;;;;5134540;27;20051;-52
2021/10/30 00:28:15;;;;;;;2.47;2.13;;;15.10;77.60;;;;;;5134754;27;20049;-55
2021/10/30 00:30:41;;;;;;;2.10;1.90;;;15.10;77.70;;;;;;5135016;27;20050;-54
2021/10/30 00:33:07;;;;;;;2.35;1.80;;;15.10;77.60;;;;;;5115803;27;20039;-52
2021/10/30 00:35:33;;;;;;;2.15;1.83;;;15.10;77.60;;;;;;5135034;27;20046;-54
2021/10/30 00:37:58;;;;;;;1.90;1.80;;;15.10;77.60;;;;;;5116415;27;20046;-55
2021/10/30 00:40:25;;;;;;;2.17;1.90;;;15.10;77.60;;;;;;5134121;27;20491;-55
2021/10/30 00:42:51;;;;;;;2.15;1.83;;;15.10;77.60;;;;;;5134775;27;20039;-55
2021/10/30 00:45:17;;;;;;;2.08;1.88;;;15.10;77.60;;;;;;5134503;27;20078;-55
2021/10/30 00:47:43;;;;;;;2.10;1.75;;;15.10;77.60;;;;;;5134207;27;20111;-56
2021/10/30 00:50:09;;;;;;;2.58;1.88;;;15.10;77.60;;;;;;5134466;27;20059;-54
2021/10/30 00:52:37;;;;;;;1.55;1.40;;;15.10;77.60;;;;;;5134691;27;20039;-55
2021/10/30 00:55:03;;;;;;;2.92;1.75;;;15.10;77.60;;;;;;5133836;27;20156;-53
2021/10/30 00:57:29;;;;;;;1.60;1.50;;;15.10;77.70;;;;;;5133933;27;20050;-55
2021/10/30 00:59:55;;;;;;;2.35;1.63;;;15.10;77.60;;;;;;5134663;27;20043;-54
2021/10/30 01:02:22;;;;;;;2.22;1.90;;;15.10;77.60;;;;;;5134335;27;20167;-54
2021/10/30 01:04:48;;;;;;;1.90;1.60;;;15.10;77.60;;;;;;5134302;27;20207;-55
2021/10/30 01:07:14;;;;;;;2.10;1.90;;;15.10;77.70;;;;;;5133158;27;20138;-54
2021/10/30 01:09:40;;;;;;;1.90;1.70;;;15.10;77.60;;;;;;5134082;27;20452;-54
2021/10/30 01:12:07;;;;;;;2.15;1.92;;;15.10;77.60;;;;;;5133556;27;20047;-52
2021/10/30 01:14:33;;;;;;;2.63;1.70;;;15.10;77.60;;;;;;5133609;27;20039;-54
2021/10/30 01:17:02;;;;;;;2.10;1.77;;;15.10;77.60;;;;;;5115322;27;20039;-54
2021/10/30 01:19:29;;;;;;;2.25;2.05;;;15.20;77.70;;;;;;5134148;27;20454;-53
2021/10/30 01:21:56;;;;;;;2.15;1.95;;;15.10;77.60;;;;;;5134144;27;20038;-54
2021/10/30 01:24:21;;;;;;;2.00;1.80;;;15.20;77.70;;;;;;5133700;27;20051;-54
2021/10/30 01:26:47;;;;;;;2.10;1.90;;;15.10;77.60;;;;;;5133138;27;20054;-55
2021/10/30 01:29:14;;;;;;;2.38;1.95;;;15.10;77.60;;;;;;5132876;27;20046;-55
2021/10/30 01:31:40;;;;;;;2.10;1.90;;;15.10;77.60;;;;;;5133662;27;20043;-56
2021/10/30 01:34:07;;;;;;;2.55;2.00;;;15.10;77.60;;;;;;5133755;27;20043;-55
2021/10/30 01:36:35;;;;;;;1.60;1.45;;;15.10;77.60;;;;;;5134008;27;20051;-55
2021/10/30 01:39:02;;;;;;;2.13;1.85;;;15.10;77.70;;;;;;5133089;27;20087;-54
2021/10/30 01:41:28;;;;;;;1.70;1.60;;;15.10;77.60;;;;;;5133480;27;20055;-54
2021/10/30 01:43:55;;;;;;;2.00;1.83;;;15.10;77.60;;;;;;5133332;27;20039;-53
2021/10/30 01:46:22;;;;;;;1.92;1.73;;;15.10;77.70;;;;;;5132471;27;20079;-55
2021/10/30 01:48:48;;;;;;;2.00;1.73;;;15.10;77.60;;;;;;5133153;27;20513;-55
2021/10/30 01:51:15;;;;;;;2.08;1.88;;;15.10;77.60;;;;;;5133878;27;20121;-55
2021/10/30 01:53:41;;;;;;;1.77;1.60;;;15.10;77.70;;;;;;5133697;27;20043;-54
2021/10/30 01:56:07;;;;;;;2.03;1.80;;;15.10;77.70;;;;;;5114850;27;20111;-52
2021/10/30 01:58:33;;;;;;;2.28;1.80;;;15.10;77.70;;;;;;5133035;27;20119;-55
2021/10/30 02:01:00;;;;;;;1.55;1.45;;;15.10;77.60;;;;;;5133454;27;20088;-55
2021/10/30 02:03:29;;;;;;;2.08;1.83;;;15.10;77.70;;;;;;5134064;27;20057;-53
2021/10/30 02:05:55;;;;;;;1.90;1.63;;;15.10;77.70;;;;;;5133849;27;20133;-53
2021/10/30 02:08:21;;;;;;;2.17;1.98;;;15.10;77.70;;;;;;5133184;27;20047;-54
2021/10/30 02:10:47;;;;;;;2.00;1.80;;;15.10;77.70;;;;;;5133121;28;20072;-55
2021/10/30 02:13:13;;;;;;;2.10;1.67;;;15.10;77.70;;;;;;5133123;28;20035;-53
2021/10/30 02:15:38;;;;;;;1.60;1.50;;;15.10;77.70;;;;;;5132997;28;20061;-54
2021/10/30 02:18:05;;;;;;;2.15;1.88;;;15.10;77.70;;;;;;5133229;28;20050;-54
2021/10/30 02:20:32;;;;;;;1.90;1.80;;;15.10;77.70;;;;;;5133191;28;20122;-54
2021/10/30 02:22:58;;;;;;;2.22;2.03;;;15.10;77.70;;;;;;5133235;28;20112;-54
2021/10/30 02:25:24;;;;;;;2.25;2.05;;;15.10;77.70;;;;;;5133055;27;20148;-54
2021/10/30 02:27:50;;;;;;;2.10;1.90;;;15.10;77.70;;;;;;5137164;27;20126;-51
2021/10/30 02:30:18;;;;;;;1.73;1.45;;;15.10;77.70;;;;;;5137438;27;20066;-55
2021/10/30 02:32:44;;;;;;;2.35;1.90;;;15.00;77.60;;;;;;5136478;27;20142;-54
2021/10/30 02:35:11;;;;;;;2.00;1.80;;;15.10;77.70;;;;;;5137404;27;20039;-55
2021/10/30 02:37:38;;;;;;;1.83;1.60;;;15.10;78.30;;;;;;5137344;27;20039;-54
2021/10/30 02:40:04;;;;;;;1.67;1.58;;;15.10;77.70;;;;;;5153171;27;20043;-54
2021/10/30 02:42:30;;;;;;;1.70;1.60;;;15.10;77.70;;;;;;5136718;27;20043;-55
2021/10/30 02:44:56;;;;;;;2.33;1.92;;;15.10;77.70;;;;;;5136853;27;20151;-55
2021/10/30 02:47:21;;;;;;;1.90;1.70;;;15.10;77.70;;;;;;5152619;27;20119;-53
2021/10/30 02:49:47;;;;;;;2.05;1.77;;;15.10;77.70;;;;;;5136894;27;20046;-54
2021/10/30 02:52:13;;;;;;;1.90;1.70;;;15.10;77.70;;;;;;5136577;27;20037;-54
2021/10/30 02:54:38;;;;;;;2.40;1.83;;;15.10;77.70;;;;;;5118385;27;20210;-55
2021/10/30 02:57:04;;;;;;;2.63;1.88;;;15.10;77.70;;;;;;5137068;27;20055;-55
2021/10/30 02:59:30;;;;;;;2.28;1.75;;;15.10;77.70;;;;;;5152502;27;20074;-55
2021/10/30 03:01:55;;;;;;;3.10;1.90;;;15.10;77.70;;;;;;5136506;27;20093;-53
2021/10/30 03:04:21;;;;;;;2.08;1.88;;;15.10;77.70;;;;;;5115904;28;20131;-55
2021/10/30 03:06:47;;;;;;;1.60;1.50;;;15.10;77.70;;;;;;5116112;28;20054;-56
2021/10/30 03:09:13;;;;;;;1.67;1.50;;;15.10;77.70;;;;;;5116245;28;20054;-55
2021/10/30 03:11:39;;;;;;;2.95;1.67;;;15.10;77.70;;;;;;5131655;27;20035;-51
2021/10/30 03:14:05;;;;;;;1.75;1.65;;;15.10;77.70;;;;;;5111625;27;20077;-55
2021/10/30 03:16:31;;;;;;;2.45;1.85;;;15.10;77.70;;;;;;5136459;27;20389;-55
2021/10/30 03:18:57;;;;;;;2.20;1.83;;;15.10;77.70;;;;;;5135888;27;20475;-55
2021/10/30 03:21:23;;;;;;;1.92;1.83;;;15.10;77.70;;;;;;5136458;27;20047;-55
2021/10/30 03:23:49;;;;;;;1.90;1.67;;;15.10;77.70;;;;;;5117137;27;20047;-55
2021/10/30 03:26:16;;;;;;;2.47;2.05;;;15.10;77.70;;;;;;5117766;27;20055;-55
2021/10/30 03:28:41;;;;;;;1.90;1.70;;;15.10;77.70;;;;;;5136285;27;20058;-55
2021/10/30 03:31:07;;;;;;;2.10;1.90;;;15.00;77.70;;;;;;5135818;27;20035;-53
2021/10/30 03:33:33;;;;;;;2.13;1.90;;;15.10;77.70;;;;;;5136021;27;20051;-55
2021/10/30 03:35:59;;;;;;;1.60;1.45;;;15.10;77.70;;;;;;5135489;27;20430;-55
2021/10/30 03:38:24;;;;;;;1.85;1.65;;;15.00;77.70;;;;;;5135622;27;20600;-55
2021/10/30 03:40:51;;;;;;;2.10;1.88;;;15.00;77.70;;;;;;5135944;27;20380;-54
2021/10/30 03:43:17;;;;;;;1.90;1.70;;;15.10;77.70;;;;;;5135032;27;20071;-55
2021/10/30 03:45:43;;;;;;;1.70;1.60;;;15.10;77.70;;;;;;5135456;27;20051;-55
2021/10/30 03:48:08;;;;;;;2.17;1.98;;;15.10;77.70;;;;;;5135480;27;20043;-53
2021/10/30 03:50:38;;;;;;;2.10;1.90;;;15.00;77.70;;;;;;5135597;27;20371;-55
2021/10/30 03:53:05;;;;;;;2.10;1.90;;;15.00;77.70;;;;;;5135876;27;20084;-54
2021/10/30 03:55:31;;;;;;;2.00;1.70;;;15.00;77.70;;;;;;5135652;27;20057;-55
2021/10/30 03:57:57;;;;;;;1.90;1.70;;;15.00;78.40;;;;;;5135938;27;20053;-52
2021/10/30 04:00:23;;;;;;;2.17;1.90;;;15.00;77.70;;;;;;5135526;27;20425;-55
2021/10/30 04:02:49;;;;;;;1.88;1.63;;;15.00;77.70;;;;;;5135856;27;20992;-54
2021/10/30 04:05:15;;;;;;;1.63;1.50;;;15.00;77.70;;;;;;5117096;27;20082;-53
2021/10/30 04:07:42;;;;;;;1.55;1.45;;;15.00;77.70;;;;;;5134903;27;20043;-55
2021/10/30 04:10:08;;;;;;;2.05;1.88;;;15.00;77.70;;;;;;5136195;27;20393;-56
2021/10/30 04:12:34;;;;;;;2.65;2.05;;;15.00;77.70;;;;;;5135789;27;20046;-54
2021/10/30 04:15:00;;;;;;;2.20;2.00;;;15.00;77.70;;;;;;5116112;27;20094;-55
2021/10/30 04:17:26;;;;;;;2.00;1.80;;;15.00;77.70;;;;;;5134579;27;20062;-53
2021/10/30 04:19:51;;;;;;;2.10;1.70;;;15.10;77.80;;;;;;5134584;27;20410;-54
2021/10/30 04:22:17;;;;;;;2.60;1.90;;;15.00;77.70;;;;;;5134993;27;20086;-56
2021/10/30 04:24:43;;;;;;;2.20;1.65;;;15.00;77.70;;;;;;5134852;27;20122;-54
2021/10/30 04:27:08;;;;;;;2.20;1.83;;;15.00;77.70;;;;;;5134747;27;20055;-49
2021/10/30 04:29:34;;;;;;;2.10;1.90;;;15.00;77.70;;;;;;5134737;27;20043;-56
2021/10/30 04:32:02;;;;;;;1.73;1.55;;;15.00;77.70;;;;;;5135198;27;20547;-56
2021/10/30 04:34:41;;;;;;;2.30;1.85;;;15.00;77.70;;;;;;5116304;27;20118;-55
2021/10/30 04:37:15;;;;;;;2.40;1.75;;;15.00;77.70;;;;;;5134793;27;20054;-55
2021/10/30 04:39:45;;;;;;;1.80;1.70;;;15.00;77.70;;;;;;5114995;27;20400;-54
2021/10/30 04:42:12;;;;;;;3.15;1.88;;;15.00;77.70;;;;;;5097992;27;20086;-53
2021/10/30 04:44:37;;;;;;;2.67;1.80;;;15.00;77.80;;;;;;5134993;27;20039;-53
2021/10/30 04:47:04;;;;;;;2.38;1.92;;;15.00;77.80;;;;;;5116106;27;20043;-53
2021/10/30 04:49:30;;;;;;;2.42;1.73;;;15.00;77.70;;;;;;5133453;27;20051;-53
2021/10/30 04:51:55;;;;;;;2.13;1.80;;;15.00;77.70;;;;;;5134542;27;20042;-55
2021/10/30 04:54:21;;;;;;;2.83;1.88;;;15.00;77.80;;;;;;5134262;27;20510;-54
2021/10/30 04:56:47;;;;;;;1.95;1.75;;;15.00;77.80;;;;;;5134286;27;20039;-52
2021/10/30 04:59:12;;;;;;;2.25;1.98;;;15.00;77.80;;;;;;5134067;27;20031;-52
2021/10/30 05:01:38;;;;;;;2.47;1.95;;;15.00;77.80;;;;;;5134576;27;20527;-55
2021/10/30 05:04:04;;;;;;;2.30;1.77;;;15.00;77.80;;;;;;5115285;27;20047;-55
2021/10/30 05:06:29;;;;;;;2.17;1.85;;;15.00;77.80;;;;;;5134350;27;20043;-53
2021/10/30 05:08:55;;;;;;;2.40;2.10;;;15.00;77.80;;;;;;5134003;27;20243;-55
2021/10/30 05:11:21;;;;;;;2.63;2.20;;;15.00;77.80;;;;;;5133637;27;20074;-55
2021/10/30 05:13:46;;;;;;;2.97;1.90;;;14.90;77.80;;;;;;5134007;27;20067;-53
2021/10/30 05:16:12;;;;;;;2.42;1.90;;;15.00;77.80;;;;;;5134366;27;20035;-57
2021/10/30 05:18:38;;;;;;;2.45;1.90;;;15.00;77.80;;;;;;5133845;27;20441;-56
2021/10/30 05:21:03;;;;;;;2.55;2.10;;;15.00;77.80;;;;;;5133779;27;20483;-55
2021/10/30 05:23:29;;;;;;;2.05;1.77;;;15.00;77.80;;;;;;5133502;27;20043;-55
2021/10/30 05:25:55;;;;;;;1.90;1.70;;;15.00;77.80;;;;;;5133468;27;20054;-54
2021/10/30 05:28:25;;;;;;;3.42;2.33;;;15.00;77.80;;;;;;5133841;27;20387;-54
2021/10/30 05:30:51;;;;;;;2.25;2.05;;;15.00;77.80;;;;;;5133946;27;20076;-53
2021/10/30 05:33:17;;;;;;;2.85;2.17;;;15.00;77.80;;;;;;5115075;27;20431;-56
2021/10/30 05:35:43;;;;;;;2.55;2.15;;;14.90;77.80;;;;;;5133569;27;20039;-56
2021/10/30 05:38:11;;;;;;;2.45;2.08;;;15.00;77.80;;;;;;5133672;27;20039;-54
2021/10/30 05:40:37;;;;;;;2.40;2.00;;;15.00;77.80;;;;;;5115016;27;20065;-55
2021/10/30 05:43:05;;;;;;;2.90;2.30;;;15.00;77.80;;;;;;5133163;27;20035;-55
2021/10/30 05:45:30;;;;;;;2.45;2.15;;;15.00;77.80;;;;;;5133704;27;20031;-56
2021/10/30 05:47:56;;;;;;;2.58;2.30;;;15.00;77.80;;;;;;5133466;27;20046;-52
2021/10/30 05:50:22;;;;;;;2.67;2.30;;;15.00;77.80;;;;;;5133236;27;20058;-54
2021/10/30 05:52:47;;;;;;;2.78;2.40;;;15.00;77.80;;;;;;5133224;27;20046;-55
2021/10/30 05:55:13;;;;;;;3.40;2.20;;;15.00;77.80;;;;;;5133475;27;20564;-55
2021/10/30 05:57:39;;;;;;;3.22;2.45;;;15.00;77.80;;;;;;5114762;27;20043;-55
2021/10/30 06:00:05;;;;;;;2.50;2.30;;;15.00;77.80;;;;;;5133426;27;20363;-53
2021/10/30 06:02:31;;;;;;;3.03;2.63;;;15.00;77.80;;;;;;5114903;28;20035;-50
2021/10/30 06:04:57;;;;;;;2.75;2.40;;;15.00;77.80;;;;;;5133342;27;20050;-54
2021/10/30 06:07:22;;;;;;;3.03;2.40;;;15.00;77.80;;;;;;5148991;27;20047;-55
2021/10/30 06:09:48;;;;;;;3.80;2.72;;;15.00;77.80;;;;;;5133673;27;20048;-56
2021/10/30 06:12:14;;;;;;;3.28;2.70;;;15.00;77.80;;;;;;5133306;28;20038;-54
2021/10/30 06:14:39;;;;;;;2.60;2.40;;;15.00;77.80;;;;;;5133227;28;20463;-54
2021/10/30 06:17:05;;;;;;;2.75;2.50;;;15.00;77.80;;;;;;5133236;28;20399;-53
2021/10/30 06:19:31;;;;;;;2.78;2.47;;;15.00;77.80;;;;;;5133725;28;20387;-53
2021/10/30 06:21:57;;;;;;;3.78;2.90;;;15.00;77.90;;;;;;5133196;28;20456;-55
2021/10/30 06:24:22;;;;;;;2.50;2.30;;;15.00;77.80;;;;;;5132625;28;20050;-53
2021/10/30 06:26:48;;;;;;;2.88;2.58;;;15.00;77.80;;;;;;5133554;28;20035;-55
2021/10/30 06:29:14;;;;;;;3.17;2.83;;;15.00;77.90;;;;;;5132820;28;20502;-55
2021/10/30 06:31:39;;;;;;;4.05;3.05;;;15.00;77.80;;;;;;5133298;28;20031;-56
2021/10/30 06:34:05;;;;;;;3.35;2.80;;;15.00;77.80;;;;;;5132858;28;20047;-56
2021/10/30 06:36:31;;;;;;;3.70;2.83;;;14.90;78.40;;;;;;5132503;28;20035;-55
2021/10/30 06:38:57;;;;;;;3.28;2.88;;;15.00;77.80;;;;;;5132149;28;20050;-54
2021/10/30 06:41:22;;;;;;;3.38;2.78;;;15.00;77.80;;;;;;5132504;28;20039;-49
2021/10/30 06:43:48;;;;;;;3.40;2.80;;;15.00;77.80;;;;;;5131921;28;20055;-55
2021/10/30 06:46:14;;;;;;;3.28;2.75;;;15.00;77.80;;;;;;5131455;28;20046;-53
2021/10/30 06:48:39;;;;;;;4.18;2.80;;;15.10;77.90;;;;;;5132376;28;20035;-51
2021/10/30 06:51:05;;;;;;;2.92;2.63;;;15.00;77.80;;;;;;5132894;28;20509;-55
2021/10/30 06:53:32;;;;;;;3.17;2.75;;;15.00;77.80;;;;;;5133053;28;20079;-56
2021/10/30 06:55:58;;;;;;;2.83;2.50;;;15.00;77.80;;;;;;5114502;28;20054;-48
2021/10/30 06:58:30;;;;;;;4.25;3.00;;;14.80;77.70;;;;;;5132325;28;20035;-54
2021/10/30 07:00:57;;;;;;;3.55;2.90;;;15.00;77.80;;;;;;5132318;28;20077;-54
2021/10/30 07:03:24;;;;;;;3.30;2.80;;;15.00;77.80;;;;;;5132735;28;20054;-53
2021/10/30 07:05:50;;;;;;;3.35;3.00;;;14.90;77.70;;;;;;5132599;28;20546;-54
2021/10/30 07:08:16;;;;;;;3.30;2.88;;;14.90;77.70;;;;;;5132079;28;20038;-53
2021/10/30 07:10:42;;;;;;;6.25;2.70;;;14.90;77.70;;;;;;5132673;28;20114;-54
2021/10/30 07:13:08;;;;;;;3.22;2.75;;;15.00;77.80;;;;;;5133990;27;20524;-55
2021/10/30 07:15:34;;;;;;;3.75;2.60;;;15.00;77.70;;;;;;5136112;27;20079;-54
2021/10/30 07:18:00;;;;;;;3.63;2.65;;;14.90;77.70;;;;;;5135509;27;20118;-55
2021/10/30 07:20:25;;;;;;;3.17;2.55;;;15.00;77.80;;;;;;5136454;27;20123;-55
2021/10/30 07:22:51;;;;;;;3.80;2.97;;;15.00;77.70;;;;;;5136204;27;20039;-53
2021/10/30 07:25:22;;;;;;;3.35;2.67;;;15.00;77.70;;;;;;5136023;27;20058;-55
2021/10/30 07:27:49;;;;;;;3.63;2.95;;;15.00;77.70;;;;;;5136441;27;20399;-52
2021/10/30 07:30:16;;;;;;;4.20;3.08;;;14.90;77.70;;;;;;5135850;27;20043;-52
2021/10/30 07:32:42;;;;;;;3.80;3.00;;;15.00;77.80;;;;;;5151976;27;20055;-53
2021/10/30 07:35:09;;;;;;;3.08;2.53;;;14.90;77.70;;;;;;5136236;27;20036;-56
2021/10/30 07:37:35;;;;;;;3.22;2.67;;;15.00;77.70;;;;;;5118058;27;20121;-55
2021/10/30 07:40:00;;;;;;;3.15;2.63;;;15.00;77.70;;;;;;5135475;27;20039;-55
2021/10/30 07:42:27;;;;;;;3.30;2.63;;;15.00;77.70;;;;;;5136260;27;20137;-55
2021/10/30 07:44:53;;;;;;;3.65;2.88;;;14.90;78.40;;;;;;5136198;27;20074;-55
2021/10/30 07:47:20;;;;;;;3.35;2.72;;;14.90;77.70;;;;;;5135490;27;20479;-54
2021/10/30 07:49:46;;;;;;;4.07;3.20;;;15.00;77.70;;;;;;5135647;27;20035;-55
2021/10/30 07:52:12;;;;;;;2.90;2.60;;;14.90;77.70;;;;;;5135387;27;20395;-51
2021/10/30 07:54:39;;;;;;;3.03;2.72;;;14.90;77.70;;;;;;5135403;27;20031;-54
2021/10/30 07:57:06;;;;;;;3.28;2.67;;;15.00;77.70;;;;;;5146689;27;20095;-54
2021/10/30 07:59:32;;;;;;;5.00;3.05;;;15.00;77.70;;;;;;5115138;28;20131;-56
2021/10/30 08:01:59;;;;;;;3.15;2.63;;;15.00;77.80;;;;;;5115166;28;20483;-53
2021/10/30 08:04:25;;;;;;;3.55;2.78;;;15.00;77.80;;;;;;5130595;27;20408;-51
2021/10/30 08:06:51;;;;;;;2.70;2.25;;;15.00;77.80;;;;;;5115004;28;20054;-52
2021/10/30 08:09:17;;;;;;;3.55;2.67;;;14.90;77.80;;;;;;5120472;27;20070;-54
2021/10/30 08:11:43;;;;;;;2.92;2.45;;;15.00;77.80;;;;;;5135587;27;20039;-54
2021/10/30 08:14:08;;;;;;;3.67;2.85;;;14.90;77.70;;;;;;5135290;27;20039;-55
2021/10/30 08:16:34;;;;;;;3.28;2.70;;;14.90;77.80;;;;;;5135703;27;20046;-52
2021/10/30 08:19:00;;;;;;;2.42;2.20;;;15.00;77.80;;;;;;5135092;27;20043;-54
2021/10/30 08:21:25;;;;;;;3.00;2.70;;;15.00;77.80;;;;;;5135478;27;20047;-50
2021/10/30 08:23:51;;;;;;;2.60;2.20;;;15.00;77.80;;;;;;5134927;27;20436;-49
2021/10/30 08:26:17;;;;;;;2.78;2.40;;;14.90;77.80;;;;;;5135531;27;20051;-54
2021/10/30 08:28:45;;;;;;;3.40;2.55;;;15.00;77.80;;;;;;5135471;27;20091;-52
2021/10/30 08:31:10;;;;;;;3.78;2.70;;;15.00;77.80;;;;;;5135530;27;20130;-51
2021/10/30 08:33:36;;;;;;;3.67;2.67;;;15.00;77.90;;;;;;5135491;27;20138;-53
2021/10/30 08:36:03;;;;;;;2.78;2.30;;;14.90;77.80;;;;;;5134750;27;20394;-54
2021/10/30 08:38:29;;;;;;;3.35;2.42;;;15.00;77.90;;;;;;5135437;27;20117;-54
2021/10/30 08:40:57;;;;;;;2.85;2.63;;;14.90;77.90;;;;;;5135188;27;20038;-56
2021/10/30 08:43:25;;;;;;;3.10;2.47;;;14.90;77.90;;;;;;5134680;27;20031;-56
2021/10/30 08:45:52;;;;;;;3.25;2.72;;;15.00;78.00;;;;;;5134248;27;20043;-55
2021/10/30 08:48:19;;;;;;;3.70;2.58;;;15.00;78.00;;;;;;5135022;27;20046;-55
2021/10/30 08:50:47;;;;;;;2.97;2.40;;;14.90;78.00;;;;;;5134861;27;20043;-53
2021/10/30 08:53:13;;;;;;;3.22;2.47;;;14.90;78.00;;;;;;5116505;27;20471;-53
2021/10/30 08:55:39;;;;;;;2.95;2.50;;;15.00;78.10;;;;;;5134632;27;20035;-57
2021/10/30 08:58:15;;;;;;;3.00;2.70;;;14.90;78.00;;;;;;5135007;27;20399;-54
2021/10/30 09:00:54;;;;;;;2.92;2.33;;;15.00;78.10;;;;;;5134886;27;20076;-56
2021/10/30 09:03:21;;;;;;;2.90;2.60;;;15.00;78.10;;;;;;5134952;27;20043;-53
2021/10/30 09:05:50;;;;;;;2.80;2.28;;;15.00;78.10;;;;;;5134320;27;20043;-57
2021/10/30 09:08:26;;;;;;;15.48;3.00;;;15.00;78.20;;;;;;5115240;27;20059;-56
2021/10/30 09:10:57;;;;;;;2.88;2.50;;;14.90;78.20;;;;;;5134508;27;20045;-54
2021/10/30 09:13:30;;;;;;;2.97;2.30;;;14.90;78.10;;;;;;5134288;27;20035;-52
2021/10/30 09:15:58;;;;;;;2.78;2.45;;;14.90;78.20;;;;;;5134302;27;20439;-54
2021/10/30 09:18:32;;;;;;;3.50;2.75;;;14.90;78.20;;;;;;5116036;27;20130;-54
2021/10/30 09:21:03;;;;;;;2.80;2.33;;;14.90;78.20;;;;;;5134245;27;20065;-54
2021/10/30 09:23:31;;;;;;;2.88;2.28;;;14.90;78.20;;;;;;5114730;27;20134;-55
2021/10/30 09:26:04;;;;;;;2.90;2.60;;;14.90;78.20;;;;;;5133609;27;20062;-55
2021/10/30 09:28:38;;;;;;;2.83;2.30;;;14.90;78.20;;;;;;5133805;27;20054;-54
2021/10/30 09:31:08;;;;;;;2.53;2.08;;;14.90;78.30;;;;;;5134135;27;20039;-55
2021/10/30 09:33:36;;;;;;;2.35;2.10;;;14.90;78.20;;;;;;5133497;27;20039;-54
2021/10/30 09:36:10;;;;;;;3.58;2.40;;;14.90;78.20;;;;;;5132967;27;20110;-53
2021/10/30 09:38:38;;;;;;;3.63;2.35;;;14.90;78.20;;;;;;5114659;27;20073;-50
2021/10/30 09:41:38;;;;;;;2.65;2.42;;;14.90;78.20;;;;;;5115266;28;20050;-53
2021/10/30 09:44:32;;;;;;;4.03;2.53;;;15.00;78.30;;;;;;5132517;27;20073;-54
2021/10/30 09:46:58;;;;;;;2.50;2.28;;;15.00;78.20;;;;;;5110680;28;20059;-46
2021/10/30 09:49:36;;;;;;;3.05;2.40;;;15.00;78.40;;;;;;5122935;27;20095;-53
2021/10/30 09:52:10;;;;;;;3.58;2.60;;;14.90;78.30;;;;;;5133490;27;20050;-47
2021/10/30 09:54:43;;;;;;;2.87;2.03;;;14.90;78.30;;;;;;5133102;27;20138;-47
2021/10/30 09:57:12;;;;;;;2.65;2.20;;;14.90;78.30;;;;;;5133964;27;20051;-51
2021/10/30 09:59:39;;;;;;;2.17;1.95;;;15.00;78.40;;;;;;5133555;27;20050;-50
2021/10/30 10:02:08;;;;;;;2.83;2.50;;;14.90;78.40;;;;;;5133405;27;20487;-51
2021/10/30 10:04:37;;;;;;;2.97;2.30;;;14.90;78.30;;;;;;5133151;27;20548;-51
2021/10/30 10:07:08;;;;;;;4.10;2.40;;;15.00;78.40;;;;;;5133677;27;20085;-54
2021/10/30 10:09:35;;;;;;;2.42;2.20;;;14.90;78.30;;;;;;5133158;27;20039;-49
2021/10/30 10:12:00;;;;;;;3.22;2.30;;;14.90;78.30;;;;;;5133647;27;20070;-52
2021/10/30 10:14:27;;;;;;;2.00;1.80;;;14.90;78.40;;;;;;5133874;28;20085;-49
2021/10/30 10:16:55;;;;;;;2.20;2.00;;;14.90;78.30;;;;;;5133618;28;20138;-52
2021/10/30 10:19:22;;;;;;;2.40;2.20;;;14.90;78.40;;;;;;5133781;28;20055;-51
2021/10/30 10:21:54;;;;;;;4.47;2.22;;;14.90;78.30;;;;;;5133625;28;20039;-47
2021/10/30 10:24:26;;;;;;;2.63;2.00;;;14.90;78.40;;;;;;5132974;28;20514;-55
2021/10/30 10:26:53;;;;;;;2.30;2.10;;;14.90;78.30;;;;;;5133065;28;20086;-54
2021/10/30 10:29:29;;;;;;;2.17;1.98;;;14.90;78.40;;;;;;5133360;28;20041;-54
2021/10/30 10:31:55;;;;;;;2.72;2.38;;;14.90;78.30;;;;;;5133199;28;20047;-51
2021/10/30 10:34:23;;;;;;;2.53;2.30;;;14.90;78.40;;;;;;5133494;28;20038;-53
2021/10/30 10:37:12;;;;;;;2.67;2.08;;;14.90;78.40;;;;;;5133402;28;20039;-51
2021/10/30 10:39:40;;;;;;;2.95;2.05;;;14.90;78.30;;;;;;5112603;28;20039;-52
2021/10/30 10:42:14;;;;;;;2.70;2.30;;;14.90;78.40;;;;;;5112398;28;20044;-50
2021/10/30 10:44:42;;;;;;;2.63;2.17;;;14.90;78.40;;;;;;5094558;28;20055;-56
2021/10/30 10:47:41;;;;;;;2.50;2.10;;;14.90;78.40;;;;;;5112611;28;20043;-50
2021/10/30 10:50:45;;;;;;;2.05;1.85;;;15.00;78.40;;;;;;5116851;28;20368;-49
2021/10/30 10:53:15;;;;;;;2.35;2.15;;;14.90;78.40;;;;;;5053656;28;20052;-51
2021/10/30 10:55:47;;;;;;;2.40;2.00;;;14.90;78.50;;;;;;5070205;28;20052;-52
2021/10/30 10:58:14;;;;;;;2.35;2.00;;;14.90;78.40;;;;;;5052918;28;20052;-51
2021/10/30 11:01:11;;;;;;;2.40;2.00;;;14.90;78.40;;;;;;5036388;28;20133;-54
2021/10/30 11:03:44;;;;;;;2.45;1.98;;;14.90;78.30;;;;;;5053322;28;20095;-54
2021/10/30 11:06:11;;;;;;;2.42;2.10;;;14.90;78.40;;;;;;5053389;28;20045;-52
2021/10/30 11:08:37;;;;;;;2.20;2.00;;;14.90;78.40;;;;;;5052884;28;20122;-57
2021/10/30 11:11:16;;;;;;;2.65;1.92;;;14.90;78.40;;;;;;5035970;28;20509;-56
2021/10/30 11:13:57;;;;;;;2.15;1.95;;;14.90;78.40;;;;;;5052481;28;20521;-56
2021/10/30 11:16:44;;;;;;;2.17;1.88;;;14.90;78.40;;;;;;5052847;28;20060;-55
2021/10/30 11:19:29;;;;;;;3.25;2.00;;;15.00;78.40;;;;;;5052677;28;20776;-58
2021/10/30 11:22:12;;;;;;;8.82;4.72;;;15.00;78.40;;;;;;5053043;28;20045;-60
2021/10/30 11:24:49;;;;;;;11.25;4.90;;;14.90;79.70;;;;;;5102786;28;20122;-62
2021/10/30 11:27:15;;;;;;;9.68;5.47;;;14.80;80.60;;;;;;5115764;28;20062;-62
2021/10/30 11:29:52;;;;;;;11.40;4.68;;;14.80;81.00;;;;;;5118672;27;20047;-61
2021/10/30 11:32:19;;;;;;;9.20;5.03;;;14.80;81.40;;;;;;5117619;27;20057;-61
2021/10/30 11:34:52;;;;;;;8.38;4.65;;;14.80;81.60;;;;;;5136398;27;20672;-61
2021/10/30 11:37:18;;;;;;;8.45;4.20;;;14.80;81.70;;;;;;5117448;27;20047;-61
2021/10/30 11:39:46;;;;;;;5.75;4.07;;;14.80;81.60;;;;;;5136151;27;20042;-60
2021/10/30 11:42:12;;;;;;;6.18;4.32;;;14.90;81.60;;;;;;5135834;27;20043;-61
2021/10/30 11:44:59;;;;;;;8.65;4.70;;;14.80;81.40;;;;;;5135718;27;20367;-61
2021/10/30 11:47:26;;;;;;;6.10;4.25;;;14.90;81.30;;;;;;5136146;27;20115;-59
2021/10/30 11:49:52;;;;;;;8.80;4.43;;;14.80;81.10;;;;;;5136056;27;20206;-61
2021/10/30 11:52:18;;;;;;;7.55;4.10;;;14.80;81.60;;;;;;5100021;27;20045;-61
2021/10/30 11:54:44;;;;;;;5.00;3.65;;;14.70;80.70;;;;;;5135703;27;20118;-60
2021/10/30 11:57:11;;;;;;;5.03;3.70;;;14.90;80.70;;;;;;5135943;27;20122;-62
2021/10/30 11:59:44;;;;;;;5.70;4.25;;;14.80;80.50;;;;;;5135112;27;20039;-61
2021/10/30 12:02:18;;;;;;;6.25;3.80;;;14.90;80.40;;;;;;5135310;27;20047;-62
2021/10/30 12:04:44;;;;;;;5.57;4.35;;;14.90;80.30;;;;;;5117338;27;20043;-60
2021/10/30 12:07:16;;;;;;;7.50;3.88;;;14.90;80.20;;;;;;5135665;27;20157;-60
2021/10/30 12:09:45;;;;;;;4.72;3.53;;;14.90;80.10;;;;;;5100077;27;20126;-61
2021/10/30 12:12:23;;;;;;;4.75;3.78;;;14.90;80.00;;;;;;5134883;27;20070;-58
2021/10/30 12:14:54;;;;;;;4.63;3.58;;;14.90;79.90;;;;;;5135703;27;20387;-61
2021/10/30 12:17:26;;;;;;;5.70;3.15;;;14.90;79.90;;;;;;5117406;27;20054;-59
2021/10/30 12:19:59;;;;;;;4.72;3.60;;;14.90;79.80;;;;;;5117006;27;20114;-60
2021/10/30 12:22:26;;;;;;;5.30;3.65;;;14.90;79.70;;;;;;5135726;27;20153;-60
2021/10/30 12:25:06;;;;;;;4.78;3.28;;;14.90;80.30;;;;;;5134900;27;20048;-58
2021/10/30 12:27:49;;;;;;;3.88;3.42;;;14.90;79.60;;;;;;5135402;27;20051;-60
2021/10/30 12:30:31;;;;;;;4.53;3.38;;;14.90;79.50;;;;;;5135511;27;20094;-61
2021/10/30 12:33:14;;;;;;;6.65;3.75;;;14.90;79.50;;;;;;5134965;27;20047;-61
2021/10/30 12:35:45;;;;;;;8.13;3.22;;;14.90;79.40;;;;;;5150352;27;20051;-61
2021/10/30 12:38:25;;;;;;;3.60;3.05;;;14.90;79.40;;;;;;5135020;27;20089;-61
2021/10/30 12:40:52;;;;;;;15.75;4.70;;;14.90;79.40;;;;;;5135097;27;20045;-59
2021/10/30 12:43:21;;;;;;;8.82;4.25;;;14.90;80.50;;;;;;5134602;27;20068;-63
2021/10/30 12:45:48;;;;;;;11.50;4.38;;;14.90;81.50;;;;;;5131342;27;20057;-51
2021/10/30 12:48:15;;;;;;;8.65;4.05;;;14.90;82.20;;;;;;5146634;27;20075;-52
2021/10/30 12:50:41;;;;;;;6.82;4.13;;;14.90;82.80;;;;;;5130473;27;20519;-49